createdAt,value
2018-07-16T00:00:57.245Z,70.50
2018-07-16T00:01:57.225Z,70.21
2018-07-16T00:02:57.214Z,70.59
2018-07-16T00:03:57.202Z,70.37
2018-07-16T00:04:57.185Z,71.26
2018-07-16T00:05:57.173Z,70.78
2018-07-16T00:06:57.163Z,70.78
2018-07-16T00:07:57.154Z,70.59
2018-07-16T00:08:57.135Z,70.21
2018-07-16T00:09:57.126Z,70.50
2018-07-16T00:10:57.114Z,70.59
2018-07-16T00:11:57.102Z,70.11
2018-07-16T00:12:57.094Z,70.50
2018-07-16T00:13:57.072Z,70.50
2018-07-16T00:14:57.069Z,70.46
2018-07-16T00:15:57.055Z,70.84
2018-07-16T00:16:57.036Z,71.52
2018-07-16T00:17:57.022Z,72.00
2018-07-16T00:18:57.093Z,72.38
2018-07-16T00:19:56.999Z,72.67
2018-07-16T00:20:56.984Z,72.54
2018-07-16T00:21:56.995Z,72.64
2018-07-16T00:22:56.962Z,72.83
2018-07-16T00:23:56.951Z,72.54
2018-07-16T00:24:56.935Z,73.02
2018-07-16T00:25:56.924Z,73.41
2018-07-16T00:26:56.910Z,73.60
2018-07-16T00:27:56.940Z,72.83
2018-07-16T00:28:56.885Z,73.31
2018-07-16T00:29:56.870Z,73.98
2018-07-16T00:30:56.859Z,73.60
2018-07-16T00:31:56.845Z,73.69
2018-07-16T00:32:56.834Z,73.31
2018-07-16T00:33:56.822Z,73.11
2018-07-16T00:34:56.807Z,73.50
2018-07-16T00:35:56.804Z,73.02
2018-07-16T00:36:56.783Z,73.31
2018-07-16T00:37:56.821Z,73.98
2018-07-16T00:38:56.755Z,73.88
2018-07-16T00:39:56.747Z,73.31
2018-07-16T00:40:56.728Z,73.02
2018-07-16T00:41:56.720Z,73.21
2018-07-16T00:42:56.719Z,73.50
2018-07-16T00:43:56.693Z,73.41
2018-07-16T00:44:56.680Z,73.79
2018-07-16T00:45:56.666Z,73.88
2018-07-16T00:46:56.655Z,73.79
2018-07-16T00:47:56.641Z,73.88
2018-07-16T00:48:56.634Z,74.08
2018-07-16T00:49:56.614Z,73.98
2018-07-16T00:50:56.600Z,73.79
2018-07-16T00:51:56.594Z,73.41
2018-07-16T00:52:56.588Z,73.41
2018-07-16T00:53:56.567Z,73.79
2018-07-16T00:54:56.552Z,73.31
2018-07-16T00:55:56.539Z,73.31
2018-07-16T00:56:56.524Z,73.50
2018-07-16T00:57:56.513Z,73.44
2018-07-16T00:58:56.498Z,73.21
2018-07-16T00:59:56.486Z,73.11
2018-07-16T01:00:56.476Z,73.11
2018-07-16T01:01:56.601Z,73.35
2018-07-16T01:02:56.452Z,72.83
2018-07-16T01:03:56.435Z,72.83
2018-07-16T01:04:56.421Z,73.11
2018-07-16T01:05:56.412Z,72.83
2018-07-16T01:06:56.396Z,72.54
2018-07-16T01:07:56.390Z,72.44
2018-07-16T01:08:56.372Z,72.73
2018-07-16T01:09:56.359Z,72.83
2018-07-16T01:10:56.344Z,73.69
2018-07-16T01:11:56.333Z,73.11
2018-07-16T01:12:56.315Z,73.69
2018-07-16T01:13:56.305Z,74.08
2018-07-16T01:14:56.291Z,72.60
2018-07-16T01:15:56.277Z,72.60
2018-07-16T01:16:56.265Z,73.24
2018-07-16T01:17:56.366Z,74.39
2018-07-16T01:18:56.244Z,75.50
2018-07-16T01:19:56.230Z,76.17
2018-07-16T01:20:56.214Z,76.37
2018-07-16T01:21:56.208Z,76.37
2018-07-16T01:22:56.195Z,76.65
2018-07-16T01:23:56.174Z,77.13
2018-07-16T01:24:56.157Z,77.13
2018-07-16T01:25:56.145Z,77.71
2018-07-16T01:26:56.136Z,77.61
2018-07-16T01:27:56.127Z,77.61
2018-07-16T01:28:56.106Z,77.84
2018-07-16T01:29:56.096Z,77.13
2018-07-16T01:30:56.078Z,76.98
2018-07-16T01:31:56.065Z,76.31
2018-07-16T01:32:56.053Z,76.12
2018-07-16T01:33:56.039Z,76.21
2018-07-16T01:34:56.028Z,76.59
2018-07-16T01:35:56.015Z,76.40
2018-07-16T01:36:56.083Z,76.98
2018-07-16T01:37:55.993Z,77.13
2018-07-16T01:38:55.973Z,77.08
2018-07-16T01:39:56.012Z,77.08
2018-07-16T01:40:55.954Z,76.40
2018-07-16T01:41:55.935Z,76.40
2018-07-16T01:42:55.924Z,76.21
2018-07-16T01:43:55.907Z,76.40
2018-07-16T01:44:55.962Z,76.40
2018-07-16T01:45:55.881Z,76.79
2018-07-16T01:46:55.877Z,76.88
2018-07-16T01:47:55.858Z,76.88
2018-07-16T01:48:55.842Z,76.98
2018-07-16T01:49:55.835Z,77.08
2018-07-16T01:50:55.816Z,76.75
2018-07-16T01:51:55.806Z,77.71
2018-07-16T01:52:55.786Z,77.51
2018-07-16T01:53:55.774Z,78.19
2018-07-16T01:54:55.766Z,78.67
2018-07-16T01:55:55.749Z,78.38
2018-07-16T01:56:55.736Z,78.38
2018-07-16T01:57:55.723Z,78.09
2018-07-16T01:58:55.706Z,77.90
2018-07-16T01:59:55.695Z,77.80
2018-07-16T02:00:55.684Z,77.71
2018-07-16T02:01:55.669Z,78.00
2018-07-16T02:02:55.656Z,77.90
2018-07-16T02:03:55.665Z,77.61
2018-07-16T02:04:55.634Z,77.36
2018-07-16T02:05:55.615Z,77.04
2018-07-16T02:06:55.604Z,77.33
2018-07-16T02:07:55.588Z,77.71
2018-07-16T02:08:55.575Z,77.26
2018-07-16T02:09:55.564Z,77.26
2018-07-16T02:10:55.549Z,76.88
2018-07-16T02:11:55.533Z,77.04
2018-07-16T02:12:55.523Z,77.36
2018-07-16T02:13:55.509Z,77.26
2018-07-16T02:14:55.499Z,77.23
2018-07-16T02:15:55.488Z,77.36
2018-07-16T02:16:55.468Z,77.61
2018-07-16T02:17:55.454Z,77.13
2018-07-16T02:18:55.445Z,77.80
2018-07-16T02:19:55.577Z,77.90
2018-07-16T02:20:55.413Z,77.80
2018-07-16T02:21:55.402Z,77.51
2018-07-16T02:22:55.390Z,77.90
2018-07-16T02:23:55.378Z,77.71
2018-07-16T02:24:55.360Z,77.61
2018-07-16T02:25:55.351Z,77.46
2018-07-16T02:26:55.335Z,77.46
2018-07-16T02:27:55.322Z,77.51
2018-07-16T02:28:55.311Z,77.75
2018-07-16T02:29:55.296Z,77.46
2018-07-16T02:30:55.284Z,77.46
2018-07-16T02:31:55.265Z,77.46
2018-07-16T02:32:55.257Z,77.08
2018-07-16T02:33:55.244Z,77.36
2018-07-16T02:34:55.226Z,77.46
2018-07-16T02:35:55.220Z,77.26
2018-07-16T02:36:55.203Z,76.88
2018-07-16T02:37:55.193Z,77.08
2018-07-16T02:38:55.174Z,77.26
2018-07-16T02:39:55.164Z,77.08
2018-07-16T02:40:55.152Z,76.88
2018-07-16T02:41:55.137Z,76.98
2018-07-16T02:42:55.122Z,76.69
2018-07-16T02:43:55.227Z,76.88
2018-07-16T02:44:55.092Z,76.59
2018-07-16T02:45:55.085Z,76.59
2018-07-16T02:46:55.072Z,76.59
2018-07-16T02:47:55.052Z,76.69
2018-07-16T02:48:55.044Z,76.79
2018-07-16T02:49:55.028Z,76.31
2018-07-16T02:50:55.031Z,76.79
2018-07-16T02:51:55.010Z,76.88
2018-07-16T02:52:54.983Z,76.98
2018-07-16T02:53:54.972Z,76.59
2018-07-16T02:54:54.956Z,77.08
2018-07-16T02:55:54.960Z,76.88
2018-07-16T02:56:54.930Z,76.98
2018-07-16T02:57:54.919Z,76.98
2018-07-16T02:58:54.901Z,76.88
2018-07-16T02:59:54.890Z,77.56
2018-07-16T03:00:54.875Z,77.56
2018-07-16T03:01:54.861Z,77.51
2018-07-16T03:02:54.854Z,77.17
2018-07-16T03:03:54.838Z,77.33
2018-07-16T03:04:54.824Z,77.33
2018-07-16T03:05:54.805Z,77.90
2018-07-16T03:06:54.796Z,77.90
2018-07-16T03:07:54.779Z,77.90
2018-07-16T03:08:54.771Z,77.51
2018-07-16T03:09:54.756Z,77.71
2018-07-16T03:10:54.744Z,77.71
2018-07-16T03:11:54.729Z,78.00
2018-07-16T03:12:54.717Z,77.51
2018-07-16T03:13:54.704Z,77.71
2018-07-16T03:14:54.694Z,77.71
2018-07-16T03:15:54.677Z,77.90
2018-07-16T03:16:54.660Z,78.00
2018-07-16T03:17:54.649Z,78.09
2018-07-16T03:18:54.727Z,78.57
2018-07-16T03:19:54.624Z,78.57
2018-07-16T03:20:54.607Z,78.28
2018-07-16T03:21:54.592Z,78.38
2018-07-16T03:22:54.577Z,78.28
2018-07-16T03:23:54.573Z,78.47
2018-07-16T03:24:54.557Z,78.38
2018-07-16T03:25:54.536Z,78.57
2018-07-16T03:26:54.605Z,78.28
2018-07-16T03:27:54.518Z,78.86
2018-07-16T03:28:54.501Z,78.28
2018-07-16T03:29:54.482Z,78.96
2018-07-16T03:30:54.473Z,78.77
2018-07-16T03:31:54.457Z,79.24
2018-07-16T03:32:54.451Z,78.77
2018-07-16T03:33:54.426Z,78.67
2018-07-16T03:34:54.418Z,78.77
2018-07-16T03:35:54.404Z,78.77
2018-07-16T03:36:54.389Z,79.34
2018-07-16T03:37:54.376Z,79.44
2018-07-16T03:38:54.364Z,79.24
2018-07-16T03:39:54.355Z,79.72
2018-07-16T03:40:54.330Z,79.68
2018-07-16T03:41:54.320Z,79.82
2018-07-16T03:42:54.372Z,79.78
2018-07-16T03:43:54.298Z,80.16
2018-07-16T03:44:54.279Z,80.11
2018-07-16T03:45:54.268Z,79.68
2018-07-16T03:46:54.252Z,79.53
2018-07-16T03:47:54.250Z,79.63
2018-07-16T03:48:54.225Z,79.24
2018-07-16T03:49:54.210Z,79.05
2018-07-16T03:50:54.195Z,78.67
2018-07-16T03:51:54.186Z,78.86
2018-07-16T03:52:54.176Z,78.86
2018-07-16T03:53:54.155Z,78.38
2018-07-16T03:54:54.144Z,78.19
2018-07-16T03:55:54.224Z,78.96
2018-07-16T03:56:54.113Z,78.28
2018-07-16T03:57:54.102Z,78.86
2018-07-16T03:58:54.088Z,79.05
2018-07-16T03:59:54.073Z,78.77
2018-07-16T04:00:54.062Z,78.67
2018-07-16T04:01:54.103Z,78.96
2018-07-16T04:02:54.035Z,78.19
2018-07-16T04:03:54.031Z,77.94
2018-07-16T04:04:54.007Z,78.03
2018-07-16T04:05:53.991Z,77.94
2018-07-16T04:06:53.995Z,78.13
2018-07-16T04:07:53.965Z,77.56
2018-07-16T04:08:53.953Z,77.75
2018-07-16T04:09:53.937Z,77.61
2018-07-16T04:10:53.927Z,77.61
2018-07-16T04:11:53.910Z,77.90
2018-07-16T04:12:53.896Z,78.00
2018-07-16T04:13:53.881Z,78.47
2018-07-16T04:14:53.867Z,79.34
2018-07-16T04:15:53.856Z,79.53
2018-07-16T04:16:53.841Z,79.24
2018-07-16T04:17:53.836Z,79.72
2018-07-16T04:18:53.816Z,80.01
2018-07-16T04:19:53.802Z,79.53
2018-07-16T04:20:53.785Z,79.82
2018-07-16T04:21:53.771Z,79.72
2018-07-16T04:22:53.761Z,79.82
2018-07-16T04:23:53.744Z,80.01
2018-07-16T04:24:53.730Z,79.63
2018-07-16T04:25:53.777Z,79.82
2018-07-16T04:26:53.706Z,80.01
2018-07-16T04:27:53.690Z,79.82
2018-07-16T04:28:53.674Z,79.63
2018-07-16T04:29:53.666Z,79.44
2018-07-16T04:30:53.722Z,79.24
2018-07-16T04:31:53.633Z,79.14
2018-07-16T04:32:53.637Z,79.14
2018-07-16T04:33:53.608Z,78.96
2018-07-16T04:34:53.650Z,79.24
2018-07-16T04:35:53.577Z,79.24
2018-07-16T04:36:53.566Z,79.05
2018-07-16T04:37:53.557Z,78.67
2018-07-16T04:38:53.536Z,78.67
2018-07-16T04:39:53.621Z,79.34
2018-07-16T04:40:53.508Z,79.19
2018-07-16T04:41:53.500Z,78.90
2018-07-16T04:42:53.487Z,78.52
2018-07-16T04:43:53.477Z,78.03
2018-07-16T04:44:53.460Z,78.57
2018-07-16T04:45:53.445Z,78.47
2018-07-16T04:46:53.429Z,78.00
2018-07-16T04:47:53.419Z,78.42
2018-07-16T04:48:53.409Z,78.13
2018-07-16T04:49:53.388Z,78.42
2018-07-16T04:50:53.380Z,77.75
2018-07-16T04:51:53.357Z,77.75
2018-07-16T04:52:53.345Z,77.36
2018-07-16T04:53:53.333Z,77.46
2018-07-16T04:54:53.318Z,76.88
2018-07-16T04:55:53.317Z,77.26
2018-07-16T04:56:53.288Z,77.17
2018-07-16T04:57:53.274Z,77.65
2018-07-16T04:58:53.265Z,77.65
2018-07-16T04:59:53.255Z,77.26
2018-07-16T05:00:53.231Z,77.36
2018-07-16T05:01:53.229Z,77.08
2018-07-16T05:02:53.214Z,76.88
2018-07-16T05:03:53.191Z,76.50
2018-07-16T05:04:53.182Z,76.69
2018-07-16T05:05:53.165Z,76.98
2018-07-16T05:06:53.151Z,77.36
2018-07-16T05:07:53.142Z,76.88
2018-07-16T05:08:53.176Z,77.01
2018-07-16T05:09:53.111Z,76.98
2018-07-16T05:10:53.096Z,76.92
2018-07-16T05:11:53.083Z,76.82
2018-07-16T05:12:53.072Z,77.01
2018-07-16T05:13:53.055Z,77.01
2018-07-16T05:14:53.045Z,76.92
2018-07-16T05:15:53.033Z,76.54
2018-07-16T05:16:53.016Z,75.67
2018-07-16T05:17:53.002Z,76.34
2018-07-16T05:18:52.994Z,76.06
2018-07-16T05:19:52.973Z,76.06
2018-07-16T05:20:52.960Z,75.10
2018-07-16T05:21:52.946Z,75.29
2018-07-16T05:22:52.935Z,75.57
2018-07-16T05:23:52.925Z,75.48
2018-07-16T05:24:52.990Z,75.57
2018-07-16T05:25:52.896Z,75.38
2018-07-16T05:26:52.879Z,75.62
2018-07-16T05:27:52.867Z,75.32
2018-07-16T05:28:52.851Z,75.13
2018-07-16T05:29:52.848Z,74.85
2018-07-16T05:30:52.838Z,74.46
2018-07-16T05:31:52.976Z,74.94
2018-07-16T05:32:52.797Z,74.46
2018-07-16T05:33:52.786Z,73.88
2018-07-16T05:34:52.774Z,74.08
2018-07-16T05:35:52.757Z,74.55
2018-07-16T05:36:52.742Z,74.46
2018-07-16T05:37:52.728Z,74.46
2018-07-16T05:38:52.719Z,74.08
2018-07-16T05:39:52.704Z,73.98
2018-07-16T05:40:52.687Z,73.83
2018-07-16T05:41:52.674Z,74.11
2018-07-16T05:42:52.662Z,73.88
2018-07-16T05:43:52.656Z,73.92
2018-07-16T05:44:52.635Z,73.50
2018-07-16T05:45:52.628Z,74.21
2018-07-16T05:46:52.611Z,74.02
2018-07-16T05:47:52.597Z,73.06
2018-07-16T05:48:52.582Z,73.25
2018-07-16T05:49:52.568Z,72.86
2018-07-16T05:50:52.557Z,73.35
2018-07-16T05:51:52.598Z,73.63
2018-07-16T05:52:52.534Z,73.06
2018-07-16T05:53:52.510Z,73.25
2018-07-16T05:54:52.552Z,72.86
2018-07-16T05:55:52.486Z,72.86
2018-07-16T05:56:52.471Z,72.96
2018-07-16T05:57:52.457Z,72.96
2018-07-16T05:58:52.445Z,73.06
2018-07-16T05:59:52.431Z,72.67
2018-07-16T06:00:52.415Z,72.67
2018-07-16T06:01:52.405Z,72.77
2018-07-16T06:02:52.393Z,72.77
2018-07-16T06:03:52.375Z,72.48
2018-07-16T06:04:52.364Z,72.67
2018-07-16T06:05:52.352Z,72.77
2018-07-16T06:06:52.339Z,72.19
2018-07-16T06:07:52.325Z,72.00
2018-07-16T06:08:52.353Z,72.38
2018-07-16T06:09:52.297Z,72.42
2018-07-16T06:10:52.303Z,72.19
2018-07-16T06:11:52.272Z,72.23
2018-07-16T06:12:52.256Z,72.23
2018-07-16T06:13:52.243Z,71.91
2018-07-16T06:14:52.236Z,71.94
2018-07-16T06:15:52.220Z,72.32
2018-07-16T06:16:52.265Z,72.23
2018-07-16T06:17:52.187Z,72.32
2018-07-16T06:18:52.176Z,71.65
2018-07-16T06:19:52.167Z,71.84
2018-07-16T06:20:52.147Z,71.46
2018-07-16T06:21:52.134Z,71.94
2018-07-16T06:22:52.129Z,70.68
2018-07-16T06:23:52.134Z,70.92
2018-07-16T06:24:52.091Z,71.11
2018-07-16T06:25:52.088Z,71.20
2018-07-16T06:26:52.120Z,70.62
2018-07-16T06:27:52.056Z,71.11
2018-07-16T06:28:52.042Z,70.43
2018-07-16T06:29:52.026Z,71.11
2018-07-16T06:30:52.014Z,71.11
2018-07-16T06:31:51.997Z,70.24
2018-07-16T06:32:51.987Z,70.92
2018-07-16T06:33:51.973Z,71.11
2018-07-16T06:34:51.957Z,70.24
2018-07-16T06:35:51.946Z,70.24
2018-07-16T06:36:51.931Z,70.43
2018-07-16T06:37:51.918Z,70.34
2018-07-16T06:38:51.905Z,70.56
2018-07-16T06:39:51.961Z,69.41
2018-07-16T06:40:52.040Z,69.02
2018-07-16T06:41:51.865Z,69.31
2018-07-16T06:42:51.850Z,69.41
2018-07-16T06:43:51.838Z,68.54
2018-07-16T06:44:51.823Z,67.97
2018-07-16T06:45:51.812Z,68.06
2018-07-16T06:46:51.799Z,68.06
2018-07-16T06:47:51.866Z,68.54
2018-07-16T06:48:51.779Z,67.49
2018-07-16T06:49:51.777Z,67.58
2018-07-16T06:50:51.782Z,67.77
2018-07-16T06:51:51.731Z,67.42
2018-07-16T06:52:51.719Z,67.81
2018-07-16T06:53:51.705Z,68.38
2018-07-16T06:54:51.696Z,67.61
2018-07-16T06:55:51.682Z,67.71
2018-07-16T06:56:51.666Z,68.38
2018-07-16T06:57:51.656Z,67.81
2018-07-16T06:58:51.643Z,68.00
2018-07-16T06:59:51.627Z,67.71
2018-07-16T07:00:51.616Z,67.16
2018-07-16T07:01:51.605Z,67.07
2018-07-16T07:02:51.592Z,66.69
2018-07-16T07:03:51.585Z,65.43
2018-07-16T07:04:51.562Z,65.81
2018-07-16T07:05:51.548Z,65.72
2018-07-16T07:06:51.538Z,64.86
2018-07-16T07:07:51.521Z,64.76
2018-07-16T07:08:51.508Z,64.95
2018-07-16T07:09:51.522Z,65.72
2018-07-16T07:10:51.482Z,64.76
2018-07-16T07:11:51.473Z,64.66
2018-07-16T07:12:51.455Z,65.66
2018-07-16T07:13:51.444Z,64.02
2018-07-16T07:14:51.436Z,63.82
2018-07-16T07:15:51.419Z,63.82
2018-07-16T07:16:51.412Z,64.40
2018-07-16T07:17:51.393Z,63.63
2018-07-16T07:18:51.383Z,63.34
2018-07-16T07:19:51.374Z,63.54
2018-07-16T07:20:51.356Z,63.06
2018-07-16T07:21:51.345Z,62.66
2018-07-16T07:22:51.351Z,62.96
2018-07-16T07:23:51.320Z,62.86
2018-07-16T07:24:51.302Z,63.06
2018-07-16T07:25:51.390Z,62.89
2018-07-16T07:26:51.276Z,63.18
2018-07-16T07:27:51.265Z,63.18
2018-07-16T07:28:51.253Z,62.60
2018-07-16T07:29:51.291Z,62.51
2018-07-16T07:30:51.235Z,61.96
2018-07-16T07:31:51.220Z,61.83
2018-07-16T07:32:51.202Z,61.77
2018-07-16T07:33:51.207Z,62.25
2018-07-16T07:34:51.176Z,61.86
2018-07-16T07:35:51.171Z,61.09
2018-07-16T07:36:51.151Z,60.89
2018-07-16T07:37:51.136Z,61.57
2018-07-16T07:38:51.125Z,60.61
2018-07-16T07:39:51.115Z,60.22
2018-07-16T07:40:51.108Z,60.89
2018-07-16T07:41:51.087Z,61.09
2018-07-16T07:42:51.072Z,60.89
2018-07-16T07:43:51.063Z,60.93
2018-07-16T07:44:51.047Z,60.06
2018-07-16T07:45:51.038Z,60.06
2018-07-16T07:46:51.025Z,59.96
2018-07-16T07:47:51.020Z,59.67
2018-07-16T07:48:50.999Z,59.67
2018-07-16T07:49:51.085Z,59.67
2018-07-16T07:50:50.976Z,58.64
2018-07-16T07:51:50.962Z,58.64
2018-07-16T07:52:50.957Z,58.73
2018-07-16T07:53:50.937Z,58.61
2018-07-16T07:54:51.295Z,58.35
2018-07-16T07:55:50.915Z,57.96
2018-07-16T07:56:50.899Z,57.48
2018-07-16T07:57:50.890Z,56.80
2018-07-16T07:58:50.874Z,57.19
2018-07-16T07:59:50.877Z,57.19
2018-07-16T08:00:50.854Z,56.71
2018-07-16T08:01:50.843Z,56.61
2018-07-16T08:02:50.831Z,56.61
2018-07-16T08:03:50.819Z,56.80
2018-07-16T08:04:50.805Z,56.61
2018-07-16T08:05:50.891Z,56.83
2018-07-16T08:06:50.783Z,56.73
2018-07-16T08:07:50.773Z,56.45
2018-07-16T08:08:50.758Z,56.86
2018-07-16T08:09:50.746Z,55.87
2018-07-16T08:10:50.732Z,55.51
2018-07-16T08:11:50.721Z,55.70
2018-07-16T08:12:50.716Z,55.51
2018-07-16T08:13:50.726Z,55.51
2018-07-16T08:14:50.687Z,55.89
2018-07-16T08:15:50.682Z,54.73
2018-07-16T08:16:50.669Z,53.86
2018-07-16T08:17:50.653Z,53.96
2018-07-16T08:18:50.644Z,53.86
2018-07-16T08:19:50.626Z,54.35
2018-07-16T08:20:50.635Z,53.96
2018-07-16T08:21:50.704Z,53.69
2018-07-16T08:22:50.591Z,54.17
2018-07-16T08:23:50.590Z,53.11
2018-07-16T08:24:50.570Z,53.02
2018-07-16T08:25:50.567Z,53.02
2018-07-16T08:26:50.554Z,53.11
2018-07-16T08:27:50.538Z,53.59
2018-07-16T08:28:50.525Z,53.89
2018-07-16T08:29:50.560Z,52.53
2018-07-16T08:30:50.497Z,53.02
2018-07-16T08:31:50.487Z,53.31
2018-07-16T08:32:50.477Z,52.63
2018-07-16T08:33:50.466Z,52.53
2018-07-16T08:34:50.454Z,53.11
2018-07-16T08:35:50.443Z,53.02
2018-07-16T08:36:50.434Z,52.56
2018-07-16T08:37:50.417Z,52.73
2018-07-16T08:38:50.420Z,51.86
2018-07-16T08:39:50.395Z,51.86
2018-07-16T08:40:50.385Z,52.24
2018-07-16T08:41:50.379Z,52.14
2018-07-16T08:42:50.513Z,52.46
2018-07-16T08:43:50.354Z,52.66
2018-07-16T08:44:50.342Z,53.04
2018-07-16T08:45:50.340Z,53.65
2018-07-16T08:46:50.315Z,52.87
2018-07-16T08:47:50.315Z,52.20
2018-07-16T08:48:50.298Z,52.39
2018-07-16T08:49:50.283Z,51.72
2018-07-16T08:50:50.279Z,50.84
2018-07-16T08:51:50.279Z,50.94
2018-07-16T08:52:50.392Z,51.04
2018-07-16T08:53:50.248Z,50.52
2018-07-16T08:54:50.227Z,51.10
2018-07-16T08:55:50.219Z,52.29
2018-07-16T08:56:50.208Z,51.23
2018-07-16T08:57:50.194Z,49.97
2018-07-16T08:58:50.194Z,49.80
2018-07-16T08:59:50.174Z,50.29
2018-07-16T09:00:50.166Z,49.12
2018-07-16T09:01:50.209Z,48.42
2018-07-16T09:02:50.141Z,49.29
2018-07-16T09:03:50.133Z,49.10
2018-07-16T09:04:50.126Z,48.74
2018-07-16T09:05:50.105Z,48.52
2018-07-16T09:06:50.100Z,48.93
2018-07-16T09:07:50.094Z,48.06
2018-07-16T09:08:50.071Z,47.77
2018-07-16T09:09:50.061Z,48.03
2018-07-16T09:10:50.116Z,49.61
2018-07-16T09:11:50.043Z,49.12
2018-07-16T09:12:50.035Z,48.74
2018-07-16T09:13:50.022Z,48.74
2018-07-16T09:14:50.012Z,48.15
2018-07-16T09:15:50.005Z,48.64
2018-07-16T09:16:49.996Z,48.27
2018-07-16T09:17:49.983Z,47.40
2018-07-16T09:18:49.968Z,47.38
2018-07-16T09:19:49.958Z,47.77
2018-07-16T09:20:49.949Z,46.99
2018-07-16T09:21:49.933Z,47.86
2018-07-16T09:22:49.936Z,47.67
2018-07-16T09:23:49.917Z,47.09
2018-07-16T09:24:49.912Z,45.44
2018-07-16T09:25:49.943Z,45.83
2018-07-16T09:26:49.889Z,46.12
2018-07-16T09:27:49.938Z,46.31
2018-07-16T09:28:49.872Z,47.11
2018-07-16T09:29:49.859Z,46.24
2018-07-16T09:30:49.842Z,46.26
2018-07-16T09:31:49.833Z,45.97
2018-07-16T09:32:49.892Z,45.87
2018-07-16T09:33:49.825Z,45.87
2018-07-16T09:34:49.802Z,45.87
2018-07-16T09:35:49.797Z,46.16
2018-07-16T09:36:49.779Z,44.90
2018-07-16T09:37:49.769Z,44.51
2018-07-16T09:38:49.970Z,44.23
2018-07-16T09:39:49.751Z,44.20
2018-07-16T09:40:49.743Z,44.81
2018-07-16T09:41:49.736Z,44.32
2018-07-16T09:42:49.718Z,43.74
2018-07-16T09:43:49.710Z,44.32
2018-07-16T09:44:49.695Z,44.23
2018-07-16T09:45:49.690Z,44.32
2018-07-16T09:46:49.682Z,42.96
2018-07-16T09:47:49.670Z,42.96
2018-07-16T09:48:49.674Z,42.94
2018-07-16T09:49:49.659Z,43.13
2018-07-16T09:50:49.633Z,43.45
2018-07-16T09:51:49.625Z,44.42
2018-07-16T09:52:49.618Z,42.77
2018-07-16T09:53:49.606Z,43.06
2018-07-16T09:54:49.595Z,43.16
2018-07-16T09:55:49.665Z,43.84
2018-07-16T09:56:49.576Z,42.69
2018-07-16T09:57:49.566Z,40.83
2018-07-16T09:58:49.552Z,41.61
2018-07-16T09:59:49.548Z,41.61
2018-07-16T10:00:49.543Z,41.99
2018-07-16T10:01:49.531Z,42.29
2018-07-16T10:02:49.513Z,42.57
2018-07-16T10:03:49.503Z,41.82
2018-07-16T10:04:49.494Z,41.72
2018-07-16T10:05:49.493Z,41.05
2018-07-16T10:06:49.484Z,41.33
2018-07-16T10:07:49.465Z,41.24
2018-07-16T10:08:49.456Z,42.02
2018-07-16T10:09:49.442Z,41.63
2018-07-16T10:10:49.432Z,41.63
2018-07-16T10:11:49.422Z,41.72
2018-07-16T10:12:49.409Z,41.53
2018-07-16T10:13:49.402Z,41.33
2018-07-16T10:14:49.393Z,41.24
2018-07-16T10:15:49.500Z,42.33
2018-07-16T10:16:49.369Z,41.64
2018-07-16T10:17:49.359Z,42.43
2018-07-16T10:18:49.428Z,42.03
2018-07-16T10:19:49.347Z,41.64
2018-07-16T10:20:49.335Z,41.36
2018-07-16T10:21:49.331Z,40.58
2018-07-16T10:22:49.320Z,40.56
2018-07-16T10:23:49.305Z,41.05
2018-07-16T10:24:49.296Z,40.75
2018-07-16T10:25:49.338Z,41.53
2018-07-16T10:26:49.275Z,41.53
2018-07-16T10:27:49.274Z,41.43
2018-07-16T10:28:49.267Z,41.63
2018-07-16T10:29:49.241Z,42.03
2018-07-16T10:30:49.242Z,40.97
2018-07-16T10:31:49.243Z,40.58
2018-07-16T10:32:49.213Z,40.01
2018-07-16T10:33:49.305Z,40.21
2018-07-16T10:34:49.254Z,40.00
2018-07-16T10:35:49.187Z,39.90
2018-07-16T10:36:49.175Z,40.48
2018-07-16T10:37:49.164Z,40.60
2018-07-16T10:38:49.157Z,40.01
2018-07-16T10:39:49.145Z,39.34
2018-07-16T10:40:49.132Z,39.55
2018-07-16T10:41:49.126Z,38.87
2018-07-16T10:42:49.116Z,39.24
2018-07-16T10:43:49.106Z,38.17
2018-07-16T10:44:49.104Z,38.37
2018-07-16T10:45:49.085Z,38.37
2018-07-16T10:46:49.084Z,38.37
2018-07-16T10:47:49.159Z,38.37
2018-07-16T10:48:49.055Z,39.14
2018-07-16T10:49:49.146Z,40.79
2018-07-16T10:50:49.037Z,39.62
2018-07-16T10:51:49.026Z,39.34
2018-07-16T10:52:49.024Z,38.27
2018-07-16T10:53:49.056Z,38.34
2018-07-16T10:54:49.000Z,38.34
2018-07-16T10:55:48.990Z,38.34
2018-07-16T10:56:48.975Z,38.44
2018-07-16T10:57:48.974Z,40.11
2018-07-16T10:58:48.973Z,40.41
2018-07-16T10:59:48.956Z,40.01
2018-07-16T11:00:48.944Z,41.01
2018-07-16T11:01:48.933Z,39.94
2018-07-16T11:02:48.919Z,38.19
2018-07-16T11:03:48.922Z,39.08
2018-07-16T11:04:48.901Z,39.47
2018-07-16T11:05:48.895Z,39.69
2018-07-16T11:06:48.886Z,38.13
2018-07-16T11:07:48.883Z,37.35
2018-07-16T11:08:48.863Z,37.26
2018-07-16T11:09:48.871Z,37.85
2018-07-16T11:10:48.846Z,37.08
2018-07-16T11:11:48.990Z,36.57
2018-07-16T11:12:48.825Z,37.54
2018-07-16T11:13:48.828Z,38.03
2018-07-16T11:14:48.820Z,37.52
2018-07-16T11:15:48.807Z,37.14
2018-07-16T11:16:48.796Z,37.02
2018-07-16T11:17:48.782Z,37.14
2018-07-16T11:18:48.769Z,37.43
2018-07-16T11:19:48.768Z,37.60
2018-07-16T11:20:48.759Z,37.60
2018-07-16T11:21:48.749Z,37.12
2018-07-16T11:22:48.737Z,37.80
2018-07-16T11:23:48.724Z,38.50
2018-07-16T11:24:48.842Z,38.60
2018-07-16T11:25:48.714Z,38.31
2018-07-16T11:26:48.699Z,36.65
2018-07-16T11:27:48.800Z,36.75
2018-07-16T11:28:48.683Z,35.76
2018-07-16T11:29:48.682Z,36.26
2018-07-16T11:30:48.668Z,37.14
2018-07-16T11:31:48.656Z,36.16
2018-07-16T11:32:48.651Z,36.38
2018-07-16T11:33:48.640Z,36.47
2018-07-16T11:34:48.637Z,35.61
2018-07-16T11:35:48.750Z,34.24
2018-07-16T11:36:48.606Z,33.07
2018-07-16T11:37:48.611Z,34.52
2018-07-16T11:38:48.599Z,34.12
2018-07-16T11:39:48.580Z,33.06
2018-07-16T11:40:48.696Z,32.47
2018-07-16T11:41:48.565Z,33.15
2018-07-16T11:42:48.561Z,33.44
2018-07-16T11:43:48.646Z,32.47
2018-07-16T11:44:48.549Z,33.25
2018-07-16T11:45:48.527Z,34.70
2018-07-16T11:46:48.519Z,35.11
2018-07-16T11:47:48.515Z,34.16
2018-07-16T11:48:48.510Z,33.28
2018-07-16T11:49:48.492Z,34.55
2018-07-16T11:50:48.487Z,33.01
2018-07-16T11:51:48.476Z,34.56
2018-07-16T11:52:48.468Z,34.08
2018-07-16T11:53:48.458Z,33.39
2018-07-16T11:54:48.446Z,34.47
2018-07-16T11:55:48.446Z,34.27
2018-07-16T11:56:48.446Z,33.20
2018-07-16T11:57:48.418Z,34.27
2018-07-16T11:58:48.464Z,34.17
2018-07-16T11:59:48.402Z,34.95
2018-07-16T12:00:48.399Z,35.05
2018-07-16T12:01:48.448Z,33.59
2018-07-16T12:02:48.377Z,32.81
2018-07-16T12:03:48.372Z,31.92
2018-07-16T12:04:48.366Z,32.21
2018-07-16T12:05:48.351Z,32.00
2018-07-16T12:06:48.341Z,31.81
2018-07-16T12:07:48.333Z,32.68
2018-07-16T12:08:48.323Z,33.46
2018-07-16T12:09:48.328Z,33.65
2018-07-16T12:10:48.308Z,33.46
2018-07-16T12:11:48.302Z,34.35
2018-07-16T12:12:48.293Z,33.17
2018-07-16T12:13:48.289Z,33.26
2018-07-16T12:14:48.383Z,34.24
2018-07-16T12:15:48.266Z,34.14
2018-07-16T12:16:48.258Z,32.78
2018-07-16T12:17:48.245Z,32.00
2018-07-16T12:18:48.234Z,32.18
2018-07-16T12:19:48.234Z,33.36
2018-07-16T12:20:48.222Z,32.78
2018-07-16T12:21:48.219Z,33.07
2018-07-16T12:22:48.202Z,32.78
2018-07-16T12:23:48.191Z,32.97
2018-07-16T12:24:48.185Z,32.68
2018-07-16T12:25:48.205Z,32.59
2018-07-16T12:26:48.167Z,32.78
2018-07-16T12:27:48.161Z,32.78
2018-07-16T12:28:48.150Z,34.14
2018-07-16T12:29:48.139Z,35.31
2018-07-16T12:30:48.180Z,35.33
2018-07-16T12:31:48.122Z,34.25
2018-07-16T12:32:48.147Z,33.38
2018-07-16T12:33:48.157Z,31.92
2018-07-16T12:34:48.097Z,31.73
2018-07-16T12:35:48.089Z,31.24
2018-07-16T12:36:48.076Z,31.24
2018-07-16T12:37:48.070Z,30.65
2018-07-16T12:38:48.063Z,30.65
2018-07-16T12:39:48.054Z,31.24
2018-07-16T12:40:48.044Z,30.57
2018-07-16T12:41:48.088Z,30.28
2018-07-16T12:42:48.029Z,29.89
2018-07-16T12:43:48.018Z,29.97
2018-07-16T12:44:48.008Z,29.78
2018-07-16T12:45:48.000Z,30.46
2018-07-16T12:46:48.085Z,29.88
2018-07-16T12:47:47.989Z,29.97
2018-07-16T12:48:47.977Z,29.69
2018-07-16T12:49:47.963Z,29.19
2018-07-16T12:50:47.967Z,29.50
2018-07-16T12:51:48.034Z,29.40
2018-07-16T12:52:47.943Z,29.99